< < Back
Terminal Aerodrome Forecast


Current Version              Previous Versions:   1  2  3  4  5  6  7  8  9  

Terminal Aerodrome Forecast

089
FTUS42 KTAE 281100
TAFTLH
TAF
KTLH 281120Z 2812/2912 01005KT P6SM SKC=



Latest METAR

702
SAUS80 KWBC 290400 RRA
MTRTLH
METAR KTLH 290353Z 00000KT 10SM CLR 02/M01 A3030 RMK AO2 SLP261 LAST
AUGMENTED OBS T00171011 $


USA.gov is the U.S. government's official web portal to all federal, state and local government web resources and services.